HTMT

Mtwara Airport

Mtwara, Tanzania
METAR HTMT 221400Z 15009KT 9999 FEW023 FEW024CB BKN080 29/22 Q1010
Observed Flight Rules
Apr-22 @ 14:00 UTC (4 hours ago) Visual Flight Rules
Wind Visibility Clouds
150° at 9 knots 10,000+ meters
  • Few at 2,300' AGL
  • Few at 2,400' AGL
  • Broken at 8,000' AGL
Temperatures Readings
Current 29°C / 84°F
Dewpoint 22°C / 72°F
Humidity 66%
Altimeter 29.82" Hg
Pressure 1010 hPa
Elevation 113
METAR HTMT 221400Z 15009KT 9999 FEW023 FEW024CB BKN080 29/22 Q1010
Observed Flight Rules
Apr-22 @ 14:00 UTC
(4 hours ago)
VFR
Wind Visibility
150° at 9 knots 10,000+ meters
Clouds
  • Few at 2,300' AGL
  • Few at 2,400' AGL
  • Broken at 8,000' AGL
Temperature Dewpoint
29°C / 84°F 22°C / 72°F
Humidity Altimeter Pressure
66% 29.82" Hg 1010 hPa